Time;durP1;ratioP1;P1;durP2;ratioP2;P2;SDS_P1;SDS_P2;PMS_P1;PMS_P2;Temp;Humidity;BMP_temperature;BMP_pressure;BME280_temperature;BME280_humidity;BME280_pressure;Samples;Min_cycle;Max_cycle;Signal;HPM_P1;HPM_P2
2021/09/11 00:13:39;;;;;;;31.78;16.05;;;;;;;17.02;84.99;100378.10;713851;1178;114142;-80
2021/09/11 00:28:41;;;;;;;45.73;20.98;;;;;;;16.54;87.74;100381.63;713752;1199;115016;-79
2021/09/11 00:43:46;;;;;;;40.98;18.80;;;;;;;16.47;88.44;100362.95;713793;1177;114291;-80
2021/09/11 00:58:49;;;;;;;35.73;18.23;;;;;;;16.16;89.36;100364.73;713974;1203;114688;-79
2021/09/11 01:13:51;;;;;;;41.20;19.55;;;;;;;15.82;91.38;100358.66;713835;1191;115857;-79
2021/09/11 01:28:54;;;;;;;48.67;21.23;;;;;;;15.71;93.06;100359.00;713726;1177;115230;-80
2021/09/11 01:43:56;;;;;;;53.65;24.28;;;;;;;15.55;92.67;100373.05;713774;1203;114673;-80
2021/09/11 01:58:58;;;;;;;27.30;13.93;;;;;;;15.47;92.82;100356.19;713878;1174;114149;-80
2021/09/11 02:14:01;;;;;;;42.68;18.15;;;;;;;15.25;93.86;100348.92;713930;1203;114523;-79
2021/09/11 02:29:04;;;;;;;38.35;18.85;;;;;;;15.04;93.46;100347.56;713929;1203;115241;-79
2021/09/11 02:44:06;;;;;;;44.80;21.13;;;;;;;14.91;95.04;100352.50;714903;1200;114350;-79
2021/09/11 02:59:08;;;;;;;28.63;14.70;;;;;;;14.73;95.83;100353.45;713959;1199;114952;-79
2021/09/11 03:14:10;;;;;;;25.77;13.10;;;;;;;14.51;95.31;100348.73;713605;1199;115273;-78
2021/09/11 03:29:13;;;;;;;28.03;14.63;;;;;;;14.26;96.40;100348.62;713981;1200;114736;-79
2021/09/11 03:44:15;;;;;;;29.07;14.87;;;;;;;14.06;97.34;100350.67;715334;1199;114993;-79
2021/09/11 03:59:17;;;;;;;23.97;13.63;;;;;;;13.93;98.05;100353.72;714167;1200;115091;-77
2021/09/11 04:14:19;;;;;;;17.05;10.38;;;;;;;13.84;98.46;100354.64;714029;1176;114282;-78
2021/09/11 04:29:21;;;;;;;25.60;12.30;;;;;;;13.76;100.00;100358.05;713932;1199;114919;-77
2021/09/11 04:44:23;;;;;;;24.50;12.90;;;;;;;13.94;100.00;100355.38;713868;1199;114558;-78
2021/09/11 04:59:25;;;;;;;30.47;15.20;;;;;;;14.04;99.29;100364.02;713806;1202;114829;-78
2021/09/11 05:14:27;;;;;;;26.78;14.53;;;;;;;14.37;100.00;100365.98;713959;1203;114460;-79
2021/09/11 05:29:30;;;;;;;32.38;16.53;;;;;;;14.84;100.00;100369.99;713933;1200;114444;-76
2021/09/11 05:44:33;;;;;;;31.50;18.00;;;;;;;15.59;99.46;100355.86;713976;1200;115664;-75
2021/09/11 05:59:37;;;;;;;31.85;14.43;;;;;;;16.53;98.23;100355.33;714125;1200;115351;-76
2021/09/11 06:14:39;;;;;;;29.60;15.75;;;;;;;17.44;96.58;100368.86;714221;1203;115178;-75
2021/09/11 06:29:41;;;;;;;22.58;11.68;;;;;;;18.51;93.16;100374.94;713993;1199;114659;-79
2021/09/11 06:44:44;;;;;;;20.20;9.70;;;;;;;19.77;87.97;100375.41;714078;1200;114508;-79
2021/09/11 06:59:46;;;;;;;20.55;9.50;;;;;;;20.84;84.54;100388.52;713907;1200;114098;-77
2021/09/11 07:14:49;;;;;;;14.03;8.30;;;;;;;22.14;80.85;100405.23;713977;1177;114619;-74
2021/09/11 07:29:52;;;;;;;14.45;7.75;;;;;;;22.05;76.92;100405.47;714424;1202;115597;-74
2021/09/11 07:44:54;;;;;;;14.78;8.25;;;;;;;23.39;74.85;100420.16;714590;1189;113906;-75
2021/09/11 07:59:56;;;;;;;15.65;7.25;;;;;;;24.29;71.96;100412.80;714849;1191;115079;-80
2021/09/11 08:15:04;;;;;;;10.13;5.68;;;;;;;24.85;68.80;100414.42;714436;1177;114985;-76
2021/09/11 08:30:08;;;;;;;11.63;5.85;;;;;;;25.74;66.05;100416.39;714164;1177;114375;-82
2021/09/11 08:45:13;;;;;;;16.48;5.95;;;;;;;26.02;63.20;100411.38;714643;1200;114127;-76
2021/09/11 09:00:15;;;;;;;10.35;5.25;;;;;;;26.79;61.50;100404.13;714335;1199;114315;-78
2021/09/11 09:15:20;;;;;;;18.88;6.45;;;;;;;27.70;59.64;100397.86;719314;1199;115834;-79
2021/09/11 09:30:47;;;;;;;9.53;4.93;;;;;;;27.57;57.06;100409.81;718628;1199;114951;-79
2021/09/11 09:45:57;;;;;;;10.00;4.30;;;;;;;28.26;57.69;100400.56;714251;1199;114071;-79
2021/09/11 10:01:00;;;;;;;13.30;5.10;;;;;;;29.27;56.25;100395.72;713978;1199;114131;-78
2021/09/11 10:16:09;;;;;;;9.35;5.15;;;;;;;28.82;56.11;100375.31;714018;1203;114806;-78
2021/09/11 10:31:12;;;;;;;9.13;4.87;;;;;;;29.03;54.98;100365.52;714891;1193;114097;-79
2021/09/11 10:46:14;;;;;;;10.83;5.43;;;;;;;29.05;54.80;100361.49;714859;1199;113696;-78
2021/09/11 11:01:16;;;;;;;8.10;4.10;;;;;;;30.47;54.79;100360.22;714041;1205;114281;-78
2021/09/11 11:16:20;;;;;;;7.70;4.95;;;;;;;30.85;53.55;100347.30;714424;1199;113995;-85
2021/09/11 11:31:22;;;;;;;9.05;5.95;;;;;;;31.71;54.05;100320.43;714225;1203;114204;-77
2021/09/11 11:46:28;;;;;;;6.95;4.95;;;;;;;31.69;54.42;100309.07;713697;1177;115536;-78
2021/09/11 12:01:31;;;;;;;8.65;5.28;;;;;;;31.91;54.75;100300.55;714033;1175;113994;-80
2021/09/11 12:16:34;;;;;;;28.50;6.55;;;;;;;32.25;55.81;100277.38;713998;1199;114878;-79
2021/09/11 12:31:40;;;;;;;13.70;5.75;;;;;;;31.92;55.89;100269.64;714128;1199;114999;-75
2021/09/11 12:46:54;;;;;;;9.10;6.10;;;;;;;32.88;56.00;100271.23;713946;1203;114171;-77
2021/09/11 13:01:56;;;;;;;9.50;5.13;;;;;;;33.43;55.34;100267.44;713866;1199;116062;-77
2021/09/11 13:17:00;;;;;;;9.88;5.30;;;;;;;33.16;54.67;100266.08;714049;1203;114609;-76
2021/09/11 13:32:03;;;;;;;8.83;6.37;;;;;;;30.64;56.76;100263.36;713957;1200;115530;-79
2021/09/11 13:47:06;;;;;;;8.80;6.05;;;;;;;28.59;61.35;100258.50;714027;1203;115517;-79
2021/09/11 14:02:09;;;;;;;6.85;5.75;;;;;;;27.38;66.21;100261.11;715322;1198;114408;-78
2021/09/11 14:17:13;;;;;;;8.83;5.43;;;;;;;26.18;68.51;100276.27;713947;1203;113922;-79
2021/09/11 14:32:17;;;;;;;11.38;5.05;;;;;;;25.58;71.08;100278.25;714651;1199;115372;-78
2021/09/11 14:47:20;;;;;;;8.68;4.85;;;;;;;25.52;71.80;100256.90;714739;1200;114128;-79
2021/09/11 15:02:26;;;;;;;6.28;5.38;;;;;;;25.60;72.35;100243.10;713888;1199;115022;-79
2021/09/11 15:17:30;;;;;;;7.10;5.43;;;;;;;25.61;74.26;100252.80;714301;1199;114531;-80
2021/09/11 15:32:32;;;;;;;17.53;9.05;;;;;;;26.04;75.66;100265.00;713969;1200;114885;-80
2021/09/11 15:47:35;;;;;;;15.88;9.33;;;;;;;26.12;75.81;100260.29;714681;1200;114438;-79
2021/09/11 16:02:38;;;;;;;41.77;25.87;;;;;;;25.90;76.92;100271.66;714017;1194;114759;-80
2021/09/11 16:17:44;;;;;;;15.58;9.10;;;;;;;25.69;77.89;100255.11;714079;1177;115260;-79
2021/09/11 16:32:48;;;;;;;27.15;18.53;;;;;;;24.96;79.50;100265.27;714388;1200;115799;-78
2021/09/11 16:47:51;;;;;;;10.80;8.38;;;;;;;24.38;81.46;100235.35;714097;1203;114662;-74
2021/09/11 17:02:55;;;;;;;16.10;9.23;;;;;;;23.99;83.92;100250.09;714180;1199;115760;-74
2021/09/11 17:17:58;;;;;;;13.93;8.78;;;;;;;23.67;87.18;100259.07;714312;1199;114570;-73
2021/09/11 17:33:02;;;;;;;16.50;11.05;;;;;;;23.12;89.30;100270.47;713941;1199;115747;-78
2021/09/11 17:48:05;;;;;;;17.23;10.70;;;;;;;22.66;92.20;100264.45;714409;1199;115483;-78
2021/09/11 18:03:08;;;;;;;19.53;11.38;;;;;;;22.55;94.87;100289.18;714388;1199;113905;-78
2021/09/11 18:18:11;;;;;;;57.73;32.47;;;;;;;22.22;97.32;100330.20;714256;1203;115960;-78
2021/09/11 18:33:14;;;;;;;19.93;13.60;;;;;;;22.18;98.43;100345.02;715143;1200;114447;-78
2021/09/11 18:48:17;;;;;;;21.30;10.30;;;;;;;21.99;98.26;100355.55;715127;1200;114855;-76
2021/09/11 19:03:19;;;;;;;16.10;10.00;;;;;;;21.64;98.44;100352.31;714805;1188;114334;-80
2021/09/11 19:18:22;;;;;;;13.85;8.28;;;;;;;21.20;99.20;100331.34;714895;1177;114310;-78
2021/09/11 19:33:25;;;;;;;20.15;10.05;;;;;;;21.02;99.99;100328.45;714954;1199;115691;-78
2021/09/11 19:48:28;;;;;;;12.30;7.60;;;;;;;20.83;99.79;100320.22;715408;1199;114312;-78
2021/09/11 20:03:30;;;;;;;9.07;6.17;;;;;;;20.34;100.00;100319.43;714832;1176;114341;-78
2021/09/11 20:18:34;;;;;;;8.65;6.58;;;;;;;19.98;100.00;100312.51;714783;1200;115215;-78
2021/09/11 20:33:40;;;;;;;11.55;7.05;;;;;;;19.66;100.00;100296.09;715198;1200;113765;-77
2021/09/11 20:48:42;;;;;;;22.25;11.40;;;;;;;19.17;100.00;100292.45;715673;1199;114914;-79
2021/09/11 21:03:44;;;;;;;15.48;9.30;;;;;;;18.87;100.00;100318.31;714515;1199;115032;-76
2021/09/11 21:18:48;;;;;;;16.47;9.97;;;;;;;18.79;100.00;100319.25;714187;1176;115163;-77
2021/09/11 21:33:50;;;;;;;21.53;13.35;;;;;;;18.65;100.00;100331.59;714006;1205;114751;-79
2021/09/11 21:48:52;;;;;;;18.13;12.05;;;;;;;18.32;100.00;100332.02;715486;1177;114604;-78
2021/09/11 22:03:54;;;;;;;17.10;10.65;;;;;;;18.26;100.00;100330.09;713994;1199;114539;-78
2021/09/11 22:18:57;;;;;;;20.35;11.93;;;;;;;18.09;100.00;100326.80;713804;1204;114664;-77
2021/09/11 22:33:59;;;;;;;16.98;12.13;;;;;;;17.97;100.00;100342.36;713889;1177;115192;-77
2021/09/11 22:49:02;;;;;;;20.43;12.83;;;;;;;17.92;100.00;100331.43;713775;1174;115011;-76
2021/09/11 23:04:04;;;;;;;30.65;17.70;;;;;;;17.86;100.00;100332.99;713941;1199;114923;-76
2021/09/11 23:19:07;;;;;;;25.60;17.03;;;;;;;17.74;100.00;100343.23;713822;1179;114524;-77
2021/09/11 23:34:09;;;;;;;23.02;14.30;;;;;;;17.70;100.00;100335.83;713754;1176;114471;-76
2021/09/11 23:49:11;;;;;;;19.18;13.85;;;;;;;17.73;100.00;100336.27;714072;1174;117247;-77
